Flight Track Log - Related Links

Times and Time Zones

All times are in EDT time to prevent confusion due to time zone crossing. See the NKS313 flight status page for this flight to view local times or setup timezone preferences in your user account.

Time Position Orientation Groundspeed Altitude Reporting Facility
EDT Latitude Longitude Course Direction KTS MPH feet Rate Location/Type
Sat 10:13:57 PM 42.2850 -83.1610 129° Southeast 287 330 7,300  Level FlightAware ADS-B
Sat 10:14:56 PM 42.2400 -83.1080 139° Southeast 289 333 8,100 2,143 Climbing FlightAware ADS-B
Sat 10:15:07 PM 42.2320 -83.1530 257° West 299 344 9,800 1,540 Climbing FlightAware ADS-B
Sat 10:16:49 PM 42.1360 -83.2400 214° Southwest 335 386 11,000 4,809 Climbing FlightAware ADS-B
Sat 10:17:28 PM 41.8190 -83.4690 208° Southwest 411 473 21,100 8,593 Climbing FlightAware ADS-B
Sat 10:18:10 PM 41.7460 -83.5180 207° Southwest 419 482 22,600 1,976 Climbing FlightAware ADS-B
Sat 10:18:53 PM 41.6710 -83.5690 207° Southwest 428 493 23,900 1,832 Climbing FlightAware ADS-B
Sat 10:19:45 PM 41.5770 -83.6330 207° Southwest 434 499 25,500 1,732 Climbing FlightAware ADS-B
Sat 10:20:30 PM 41.4970 -83.6880 207° Southwest 443 510 26,700 1,533 Climbing FlightAware ADS-B
Sat 10:21:15 PM 41.4140 -83.7440 207° Southwest 453 521 27,800 1,412 Climbing FlightAware ADS-B
Sat 10:21:55 PM 41.3380 -83.7960 207° Southwest 462 532 28,700 1,756 Climbing FlightAware ADS-B
Sat 10:22:37 PM 41.2570 -83.8500 207° Southwest 453 521 30,200 1,390 Climbing FlightAware ADS-B
Sat 10:23:17 PM 41.1830 -83.9010 207° Southwest 466 536 30,600 929 Climbing FlightAware ADS-B
Sat 10:24:01 PM 41.0960 -83.9590 207° Southwest 471 542 31,500 1,429 Climbing FlightAware ADS-B
Sat 10:24:41 PM 41.0210 -84.0090 207° Southwest 462 532 32,600 1,519 Climbing FlightAware ADS-B
Sat 10:25:20 PM 40.9480 -84.0580 207° Southwest 458 527 33,500 1,326 Climbing FlightAware ADS-B
Sat 10:26:07 PM 40.8570 -84.1190 207° Southwest 458 527 34,500 1,467 Climbing FlightAware ADS-B
Sat 10:26:50 PM 40.7770 -84.1710 206° Southwest 450 518 35,700 1,590 Climbing FlightAware ADS-B
Sat 10:27:30 PM 40.7040 -84.2200 207° Southwest 442 509 36,700 1,373 Climbing FlightAware ADS-B
Sat 10:28:13 PM 40.6240 -84.2730 207° Southwest 438 504 37,600 907 Climbing FlightAware ADS-B
Sat 10:28:56 PM 40.5480 -84.3240 207° Southwest 442 509 38,000 279 Climbing FlightAware ADS-B
Sat 10:29:39 PM 40.4690 -84.3760 207° Southwest 437 503 38,000  Level FlightAware ADS-B
Sat 10:30:19 PM 40.3960 -84.4230 206° Southwest 435 501 38,000  Level FlightAware ADS-B
Sat 10:31:43 PM 40.2490 -84.5190 206° Southwest 436 502 38,000  Level FlightAware ADS-B
Sat 10:32:27 PM 40.1660 -84.5730 206° Southwest 439 505 38,000  Level FlightAware ADS-B
Sat 10:33:06 PM 40.0970 -84.6180 207° Southwest 439 505 38,000  Level FlightAware ADS-B
Sat 10:33:51 PM 40.0150 -84.6710 206° Southwest 440 506 38,000  Level FlightAware ADS-B
Sat 10:34:31 PM 39.9380 -84.7210 206° Southwest 440 506 38,000  Level FlightAware ADS-B
Sat 10:35:15 PM 39.8610 -84.7700 206° Southwest 440 506 38,000  Level FlightAware ADS-B
Sat 10:35:55 PM 39.7930 -84.8220 210° Southwest 429 494 38,000  Level FlightAware ADS-B
Sat 10:36:38 PM 39.7260 -84.8940 220° Southwest 418 481 38,000  Level FlightAware ADS-B
Sat 10:37:21 PM 39.6730 -84.9710 228° Southwest 408 470 38,000  Level FlightAware ADS-B
Sat 10:38:00 PM 39.6250 -85.0490 231° Southwest 408 470 38,000  Level FlightAware ADS-B
Sat 10:38:42 PM 39.5750 -85.1300 231° Southwest 407 468 38,000  Level FlightAware ADS-B
Sat 10:39:25 PM 39.5260 -85.2080 231° Southwest 407 468 38,000  Level FlightAware ADS-B
Sat 10:40:09 PM 39.4740 -85.2920 231° Southwest 406 467 38,000  Level FlightAware ADS-B
Sat 10:40:48 PM 39.4270 -85.3680 231° Southwest 405 466 38,000  Level FlightAware ADS-B
Sat 10:41:31 PM 39.3770 -85.4470 231° Southwest 404 465 38,000  Level FlightAware ADS-B
Sat 10:42:12 PM 39.3280 -85.5250 231° Southwest 405 466 38,000  Level FlightAware ADS-B
Sat 10:42:56 PM 39.2750 -85.6080 230° Southwest 407 468 38,000  Level FlightAware ADS-B
Sat 10:43:34 PM 39.2300 -85.6790 231° Southwest 408 470 38,000  Level FlightAware ADS-B
Sat 10:44:20 PM 39.1750 -85.7660 231° Southwest 408 470 38,000  Level FlightAware ADS-B
Sat 10:45:00 PM 39.1280 -85.8400 231° Southwest 408 470 38,000  Level FlightAware ADS-B
Sat 10:45:45 PM 39.0750 -85.9240 231° Southwest 407 468 38,000  Level FlightAware ADS-B
Sat 10:46:26 PM 39.0270 -85.9990 231° Southwest 405 466 38,000  Level FlightAware ADS-B
Sat 10:47:06 PM 38.9770 -86.0770 231° Southwest 405 466 38,000  Level FlightAware ADS-B
Sat 10:47:48 PM 38.9280 -86.1540 231° Southwest 406 467 38,000  Level FlightAware ADS-B
Sat 10:48:32 PM 38.8760 -86.2350 231° Southwest 405 466 38,000  Level FlightAware ADS-B
Sat 10:49:06 PM 38.8370 -86.2950 230° Southwest 404 465 38,000  Level FlightAware ADS-B
Sat 10:49:57 PM 38.7750 -86.3920 231° Southwest 404 465 38,000  Level FlightAware ADS-B
Sat 10:50:35 PM 38.7320 -86.4570 230° Southwest 405 466 38,000  Level FlightAware ADS-B
Sat 10:51:17 PM 38.6790 -86.5390 230° Southwest 406 467 38,000  Level FlightAware ADS-B
Sat 10:52:03 PM 38.6240 -86.6240 230° Southwest 404 465 38,000  Level FlightAware ADS-B
Sat 10:52:43 PM 38.5760 -86.6980 230° Southwest 406 467 38,000  Level FlightAware ADS-B
Sat 10:53:23 PM 38.5270 -86.7720 230° Southwest 405 466 38,000  Level FlightAware ADS-B
Sat 10:54:08 PM 38.4730 -86.8550 230° Southwest 407 468 38,000  Level FlightAware ADS-B
Sat 10:54:48 PM 38.4240 -86.9290 230° Southwest 409 471 38,000  Level FlightAware ADS-B
Sat 10:55:23 PM 38.3830 -86.9920 230° Southwest 411 473 38,000  Level FlightAware ADS-B
Sat 10:56:14 PM 38.3190 -87.0880 230° Southwest 413 475 38,000  Level FlightAware ADS-B
Sat 10:56:54 PM 38.2690 -87.1630 230° Southwest 415 478 38,000  Level FlightAware ADS-B
Sat 10:57:35 PM 38.2190 -87.2390 230° Southwest 416 479 38,000  Level FlightAware ADS-B
Sat 10:58:18 PM 38.1660 -87.3190 230° Southwest 417 480 38,000  Level FlightAware ADS-B
Sat 10:59:03 PM 38.1110 -87.4020 230° Southwest 417 480 38,000  Level FlightAware ADS-B
Sat 10:59:43 PM 38.0600 -87.4780 230° Southwest 416 479 38,000  Level FlightAware ADS-B
Sat 11:00:26 PM 38.0060 -87.5580 229° Southwest 414 476 38,000  Level FlightAware ADS-B
Sat 11:01:07 PM 37.9560 -87.6340 230° Southwest 414 476 38,000  Level FlightAware ADS-B
Sat 11:01:47 PM 37.9060 -87.7070 229° Southwest 412 474 38,000  Level FlightAware ADS-B
Sat 11:02:31 PM 37.8530 -87.7870 230° Southwest 412 474 38,000  Level FlightAware ADS-B
Sat 11:03:12 PM 37.8000 -87.8640 229° Southwest 411 473 38,000 -71 Level FlightAware ADS-B
Sat 11:03:56 PM 37.7460 -87.9440 230° Southwest 412 474 37,900  Descending FlightAware ADS-B
Sat 11:04:36 PM 37.6970 -88.0160 229° Southwest 415 478 38,000 71 Climbing FlightAware ADS-B
Sat 11:05:20 PM 37.6410 -88.0990 230° Southwest 418 481 38,000  Level FlightAware ADS-B
Sat 11:06:01 PM 37.5900 -88.1730 229° Southwest 420 483 38,000 71 Level FlightAware ADS-B
Sat 11:06:45 PM 37.5340 -88.2550 229° Southwest 419 482 38,100  Climbing FlightAware ADS-B
Sat 11:07:24 PM 37.4850 -88.3270 229° Southwest 419 482 38,000 -78 Descending FlightAware ADS-B
Sat 11:08:02 PM 37.4360 -88.3980 229° Southwest 418 481 38,000  Level FlightAware ADS-B
Sat 11:08:49 PM 37.3780 -88.4820 229° Southwest 417 480 38,000  Level FlightAware ADS-B
Sat 11:09:30 PM 37.3250 -88.5590 229° Southwest 416 479 38,000  Level FlightAware ADS-B
Sat 11:10:14 PM 37.2690 -88.6390 229° Southwest 416 479 38,000  Level FlightAware ADS-B
Sat 11:10:56 PM 37.2170 -88.7140 229° Southwest 416 479 38,000  Level FlightAware ADS-B
Sat 11:11:48 PM 37.1560 -88.8020 229° Southwest 415 478 38,000  Level FlightAware ADS-B
Sat 11:12:49 PM 37.0810 -88.9080 228° Southwest 415 478 38,000  Level FlightAware ADS-B
Sat 11:13:43 PM 37.0070 -89.0150 229° Southwest 415 478 38,000  Level FlightAware ADS-B
Sat 11:14:17 PM 36.9640 -89.0770 229° Southwest 415 478 38,000  Level FlightAware ADS-B
Sat 11:15:01 PM 36.9080 -89.1560 228° Southwest 415 478 38,000  Level FlightAware ADS-B
Sat 11:15:37 PM 36.8670 -89.2130 228° Southwest 415 478 38,000  Level FlightAware ADS-B
Sat 11:16:25 PM 36.8050 -89.3010 229° Southwest 416 479 38,000  Level FlightAware ADS-B
Sat 11:17:06 PM 36.7480 -89.3820 229° Southwest 416 479 38,000  Level FlightAware ADS-B
Sat 11:17:54 PM 36.6940 -89.4580 228° Southwest 416 479 38,000  Level FlightAware ADS-B
Sat 11:18:34 PM 36.6360 -89.5400 229° Southwest 415 478 38,000  Level FlightAware ADS-B
Sat 11:19:10 PM 36.5900 -89.6050 229° Southwest 414 476 38,000  Level FlightAware ADS-B
Sat 11:19:59 PM 36.5360 -89.6790 228° Southwest 414 476 38,000  Level FlightAware ADS-B
Sat 11:20:36 PM 36.4960 -89.7340 228° Southwest 414 476 38,000  Level FlightAware ADS-B
Sat 11:21:24 PM 36.4440 -89.8060 228° Southwest 414 476 38,000  Level FlightAware ADS-B
Sat 11:22:00 PM 36.4050 -89.8610 229° Southwest 414 476 38,000  Level FlightAware ADS-B
Sat 11:22:44 PM 36.3160 -89.9850 228° Southwest 415 478 38,000  Level FlightAware ADS-B
Sat 11:23:29 PM 36.2660 -90.0530 228° Southwest 416 479 38,000  Level FlightAware ADS-B
Sat 11:24:05 PM 36.2250 -90.1060 226° Southwest 416 479 38,000  Level FlightAware ADS-B
Sat 11:24:54 PM 36.1710 -90.1790 228° Southwest 416 479 38,000  Level FlightAware ADS-B
Sat 11:25:32 PM 36.1020 -90.2810 230° Southwest 417 480 38,000  Level FlightAware ADS-B
Sat 11:26:10 PM 36.0600 -90.3380 228° Southwest 417 480 38,000  Level FlightAware ADS-B
Sat 11:26:57 PM 35.9900 -90.4340 228° Southwest 417 480 38,000  Level FlightAware ADS-B
Sat 11:27:41 PM 35.9330 -90.5110 228° Southwest 418 481 38,000  Level FlightAware ADS-B
Sat 11:28:14 PM 35.8980 -90.5600 229° Southwest 418 481 38,000  Level FlightAware ADS-B
Sat 11:29:01 PM 35.8300 -90.6510 227° Southwest 417 480 38,000  Level FlightAware ADS-B
Sat 11:30:15 PM 35.7440 -90.7670 228° Southwest 417 480 38,000  Level FlightAware ADS-B
Sat 11:30:54 PM 35.7000 -90.8240 226° Southwest 417 480 38,000  Level FlightAware ADS-B
Sat 11:31:35 PM 35.6290 -90.9240 229° Southwest 417 480 38,000  Level FlightAware ADS-B
Sat 11:32:15 PM 35.5780 -90.9920 227° Southwest 417 480 38,000  Level FlightAware ADS-B
Sat 11:33:03 PM 35.5160 -91.0760 228° Southwest 419 482 38,000  Level FlightAware ADS-B
Sat 11:33:52 PM 35.4560 -91.1550 227° Southwest 418 481 38,000  Level FlightAware ADS-B
Sat 11:34:40 PM 35.4020 -91.2260 227° Southwest 418 481 38,000  Level FlightAware ADS-B
Sat 11:35:19 PM 35.3390 -91.3120 228° Southwest 411 473 38,000  Level FlightAware ADS-B
Sat 11:35:58 PM 35.2950 -91.3690 227° Southwest 411 473 38,000  Level FlightAware ADS-B
Sat 11:36:42 PM 35.2370 -91.4460 227° Southwest 408 470 38,000  Level FlightAware ADS-B
Sat 11:37:30 PM 35.1850 -91.5150 227° Southwest 408 470 38,000  Level FlightAware ADS-B
Sat 11:38:06 PM 35.1460 -91.5660 227° Southwest 408 470 38,000  Level FlightAware ADS-B
Sat 11:38:50 PM 35.0760 -91.6590 227° Southwest 409 471 38,000  Level FlightAware ADS-B
Sat 11:39:33 PM 35.0120 -91.7440 227° Southwest 411 473 38,000  Level FlightAware ADS-B
Sat 11:40:29 PM 34.9390 -91.8390 227° Southwest 412 474 38,000  Level FlightAware ADS-B
Sat 11:41:14 PM 34.8900 -91.9030 227° Southwest 412 474 38,000  Level FlightAware ADS-B
Sat 11:41:50 PM 34.8500 -91.9550 227° Southwest 412 474 38,000  Level FlightAware ADS-B
Sat 11:42:38 PM 34.7970 -92.0240 227° Southwest 412 474 38,000  Level FlightAware ADS-B
Sat 11:43:14 PM 34.7570 -92.0760 227° Southwest 412 474 38,000  Level FlightAware ADS-B
Sat 11:44:16 PM 34.6890 -92.1660 227° Southwest 412 474 38,000  Level FlightAware ADS-B
Sat 11:44:53 PM 34.6480 -92.2190 227° Southwest 412 474 38,000  Level FlightAware ADS-B
Sat 11:45:29 PM 34.6080 -92.2710 227° Southwest 412 474 38,000  Level FlightAware ADS-B
Sat 11:46:18 PM 34.5540 -92.3410 227° Southwest 412 474 38,000  Level FlightAware ADS-B
Sat 11:46:55 PM 34.5130 -92.3950 227° Southwest 412 474 38,000  Level FlightAware ADS-B
Sat 11:47:43 PM 34.4600 -92.4640 227° Southwest 412 474 38,000  Level FlightAware ADS-B
Sat 11:48:19 PM 34.4200 -92.5150 226° Southwest 412 474 38,000  Level FlightAware ADS-B
Sat 11:49:08 PM 34.3660 -92.5860 227° Southwest 412 474 38,000  Level FlightAware ADS-B
Sat 11:49:44 PM 34.3270 -92.6370 227° Southwest 412 474 38,000  Level FlightAware ADS-B
Sat 11:50:25 PM 34.2810 -92.6960 227° Southwest 412 474 38,000  Level FlightAware ADS-B
Sat 11:51:39 PM 34.4140 -93.1700 289° West 394 453 38,000  Level FlightAware ADS-B
Sat 11:52:21 PM 34.3940 -93.2430 252° West 394 453 38,000  Level FlightAware ADS-B
Sat 11:52:58 PM 34.3750 -93.3080 251° West 394 453 38,000  Level FlightAware ADS-B
Sat 11:53:46 PM 34.3510 -93.3930 251° West 394 453 38,000  Level FlightAware ADS-B
Sat 11:54:46 PM 34.3100 -93.5500 252° West 395 455 38,000  Level FlightAware ADS-B
Sat 11:55:23 PM 34.2910 -93.6160 251° West 395 455 38,000  Level FlightAware ADS-B
Sat 11:55:59 PM 34.2590 -93.7100 248° West 400 460 38,000  Level FlightAware ADS-B
Sat 11:56:51 PM 34.2300 -93.8020 249° West 400 460 38,000  Level FlightAware ADS-B
Sat 11:57:27 PM 34.2100 -93.8660 249° West 400 460 38,000  Level FlightAware ADS-B
Sat 11:58:15 PM 34.1830 -93.9510 249° West 400 460 38,000  Level FlightAware ADS-B
Sat 11:58:51 PM 34.1620 -94.0150 248° West 400 460 38,000  Level FlightAware ADS-B
Sat 11:59:51 PM 34.1100 -94.1930 251° West 409 471 38,000  Level FlightAware ADS-B
Sun 12:00:28 AM 34.0820 -94.2850 250° West 413 475 38,000  Level FlightAware ADS-B
Sun 12:01:11 AM 34.0520 -94.3760 248° West 415 478 38,000  Level FlightAware ADS-B
Sun 12:01:58 AM 34.0100 -94.4750 243° Southwest 415 478 38,000 -71 Level FlightAware ADS-B
Sun 12:02:36 AM 33.9770 -94.5540 243° Southwest 417 480 37,900 -371 Descending FlightAware ADS-B
Sun 12:03:35 AM 33.9300 -94.6660 243° Southwest 420 483 37,400 -316 Descending FlightAware ADS-B
Sun 12:04:11 AM 33.9030 -94.7300 243° Southwest 420 483 37,400 -1,317 Level FlightAware ADS-B
Sun 12:04:57 AM 33.8540 -94.8470 243° Southwest 424 488 35,600 -1,667 Descending FlightAware ADS-B
Sun 12:05:41 AM 33.8140 -94.9400 243° Southwest 428 493 34,900 -1,000 Descending FlightAware ADS-B
Sun 12:06:21 AM 33.7780 -95.0250 243° Southwest 430 495 34,200 -1,200 Descending FlightAware ADS-B
Sun 12:07:06 AM 33.7370 -95.1210 243° Southwest 432 497 33,200 -1,884 Descending FlightAware ADS-B
Sun 12:07:47 AM 33.7000 -95.2070 243° Southwest 426 490 31,500 -2,400 Descending FlightAware ADS-B
Sun 12:08:31 AM 33.6610 -95.2990 243° Southwest 420 483 29,800 -2,286 Descending FlightAware ADS-B
Sun 12:09:11 AM 33.6250 -95.3820 243° Southwest 415 478 28,300 -2,296 Descending FlightAware ADS-B
Sun 12:09:52 AM 33.5890 -95.4660 243° Southwest 408 470 26,700 -2,259 Descending FlightAware ADS-B
Sun 12:10:36 AM 33.5510 -95.5530 242° Southwest 402 463 25,100 -2,198 Descending FlightAware ADS-B
Sun 12:11:33 AM 33.5040 -95.6640 243° Southwest 394 453 23,000 -2,175 Descending FlightAware ADS-B
Sun 12:11:56 AM 33.4840 -95.7100 242° Southwest 388 447 22,200 -2,087 Descending FlightAware ADS-B
Sun 12:12:42 AM 33.4470 -95.7930 242° Southwest 378 435 20,600 -2,118 Descending FlightAware ADS-B
Sun 12:13:21 AM 33.4150 -95.8660 242° Southwest 370 426 19,200 -2,286 Descending FlightAware ADS-B
Sun 12:14:06 AM 33.3790 -95.9490 243° Southwest 368 423 17,400 -2,047 Descending FlightAware ADS-B
Sun 12:14:46 AM 33.3480 -96.0200 242° Southwest 353 406 16,300 -1,829 Descending FlightAware ADS-B
Sun 12:15:28 AM 33.3170 -96.0920 243° Southwest 348 400 14,900 -1,835 Descending FlightAware ADS-B
Sun 12:16:11 AM 33.2860 -96.1620 242° Southwest 335 386 13,700 -1,835 Descending FlightAware ADS-B
Sun 12:16:53 AM 33.2560 -96.2310 243° Southwest 328 377 12,300 -1,952 Descending FlightAware ADS-B
Sun 12:17:34 AM 33.2270 -96.2970 242° Southwest 326 375 11,000 -988 Descending FlightAware ADS-B
Sun 12:18:18 AM 33.2050 -96.3710 250° West 324 373 10,900 -439 Descending FlightAware ADS-B
Sun 12:18:56 AM 33.1890 -96.4350 253° West 308 354 10,400 -795 Descending FlightAware ADS-B
Sun 12:19:41 AM 33.1720 -96.5040 254° West 283 326 9,800 -1,068 Descending FlightAware ADS-B
Sun 12:20:09 AM 33.1620 -96.5460 254° West 281 323 9,100 -1,463 Descending FlightAware ADS-B
Sun 12:20:22 AM 33.1570 -96.5660 253° West 279 321 8,800 -1,364 Descending FlightAware ADS-B
Sun 12:20:53 AM 33.1460 -96.6090 253° West 269 310 8,100 -1,395 Descending FlightAware ADS-B
Sun 12:21:05 AM 33.1410 -96.6260 251° West 269 310 7,800 -1,500 Descending FlightAware ADS-B
Sun 12:21:33 AM 33.1320 -96.6670 255° West 268 308 7,100 -1,535 Descending FlightAware ADS-B
Sun 12:21:48 AM 33.1260 -96.6880 251° West 266 306 6,700 -1,535 Descending FlightAware ADS-B
Sun 12:22:16 AM 33.1170 -96.7270 255° West 263 303 6,000 -1,500 Descending FlightAware ADS-B
Sun 12:22:28 AM 33.1120 -96.7440 251° West 263 303 5,700 -1,463 Descending FlightAware ADS-B
Sun 12:22:57 AM 33.1020 -96.7830 253° West 259 298 5,000 -1,179 Descending FlightAware ADS-B
Sun 12:23:24 AM 33.0930 -96.8210 254° West 261 300 4,600 -842 Descending FlightAware ADS-B
Sun 12:23:54 AM 33.0830 -96.8620 254° West 257 296 4,200 -828 Descending FlightAware ADS-B
Sun 12:24:22 AM 33.0730 -96.9000 253° West 253 291 3,800 -1,000 Descending FlightAware ADS-B
Sun 12:24:30 AM 33.0710 -96.9110 258° West 252 290 3,600 -1,500 Descending FlightAware ADS-B
Sun 12:24:58 AM 33.0610 -96.9480 252° West 252 290 2,900 -712 Descending FlightAware ADS-B
Sun 12:25:29 AM 33.0520 -96.9870 255° West 222 255 2,900  Level FlightAware ADS-B
Sun 12:25:59 AM 33.0430 -97.0180 251° West 188 216 2,900 -286 Level FlightAware ADS-B
Sun 12:26:11 AM 33.0350 -97.0250 216° Southwest 164 189 2,700 -857 Descending FlightAware ADS-B
Sun 12:26:27 AM 33.0240 -97.0290 197° South 159 183 2,500 -818 Descending FlightAware ADS-B
Sun 12:26:55 AM 33.0040 -97.0300 182° South 152 175 2,100 -842 Descending FlightAware ADS-B
Sun 12:27:24 AM 32.9850 -97.0300 180° South 131 151 1,700 -737 Descending FlightAware ADS-B
Sun 12:27:52 AM 32.9690 -97.0300 180° South 118 136 1,400 -453 Descending FlightAware ADS-B
Sun 12:28:17 AM 32.9550 -97.0300 180° South 121 139 1,300 -113 Descending FlightAware ADS-B
Sun 12:28:45 AM 32.9420 -97.0300 180° South 121 139 1,300  Level FlightAware ADS-B
Sun 12:36:00 AM 32.8968 -97.0380 210° Southwest  Level Estimated
Sun 12:37:00 AM 32.8968 -97.0380 210° Southwest  Level Estimated

Login

Don't have an account? Register now (free) for customized features, flight alerts, and more!